createdAt,value
2023-02-08T00:00:46.226Z,14.25
2023-02-08T00:05:49.321Z,14.32
2023-02-08T00:10:52.414Z,14.60
2023-02-08T00:15:56.772Z,13.60
2023-02-08T00:20:59.941Z,13.48
2023-02-08T00:26:02.766Z,13.25
2023-02-08T00:31:07.124Z,13.27
2023-02-08T00:36:13.068Z,14.98
2023-02-08T00:41:17.517Z,14.55
2023-02-08T00:46:24.629Z,14.75
2023-02-08T00:51:27.308Z,14.90
2023-02-08T00:56:30.092Z,13.23
2023-02-08T01:01:36.918Z,12.48
2023-02-08T01:06:40.221Z,13.07
2023-02-08T01:11:43.238Z,12.63
2023-02-08T01:16:47.648Z,15.20
2023-02-08T01:21:50.450Z,12.93
2023-02-08T01:26:53.309Z,14.90
2023-02-08T01:31:57.503Z,17.98
2023-02-08T01:37:00.251Z,20.98
2023-02-08T01:42:03.366Z,19.52
2023-02-08T01:47:07.612Z,19.45
2023-02-08T01:52:14.830Z,19.00
2023-02-08T01:57:18.192Z,16.00
2023-02-08T02:02:23.949Z,16.70
2023-02-08T02:07:29.114Z,15.98
2023-02-08T02:12:32.949Z,15.45
2023-02-08T02:17:38.356Z,14.80
2023-02-08T02:23:10.652Z,15.48
2023-02-08T02:28:44.471Z,13.07
2023-02-08T02:33:59.336Z,14.70
2023-02-08T02:39:15.149Z,13.13
2023-02-08T02:44:27.025Z,12.63
2023-02-08T02:49:38.173Z,13.75
2023-02-08T02:54:44.545Z,13.80
2023-02-08T02:59:47.611Z,12.65
2023-02-08T03:04:55.166Z,13.90
2023-02-08T03:10:10.383Z,13.77
2023-02-08T03:15:24.692Z,12.43
2023-02-08T03:20:34.070Z,14.18
2023-02-08T03:25:46.628Z,14.07
2023-02-08T03:30:57.051Z,12.65
2023-02-08T03:36:06.311Z,13.60
2023-02-08T03:41:16.305Z,14.20
2023-02-08T03:46:24.351Z,13.10
2023-02-08T03:51:31.246Z,13.48
2023-02-08T03:56:41.503Z,13.25
2023-02-08T04:01:47.168Z,12.18
2023-02-08T04:06:51.269Z,11.68
2023-02-08T04:11:54.030Z,12.60
2023-02-08T04:16:56.945Z,11.95
2023-02-08T04:22:01.079Z,12.60
2023-02-08T04:27:05.856Z,12.88
2023-02-08T04:32:11.608Z,13.98
2023-02-08T04:37:15.839Z,13.77
2023-02-08T04:42:19.311Z,12.57
2023-02-08T04:47:22.804Z,13.20
2023-02-08T04:52:26.988Z,13.95
2023-02-08T04:57:29.892Z,12.30
2023-02-08T05:02:32.658Z,12.82
2023-02-08T05:07:36.807Z,13.35
2023-02-08T05:12:39.550Z,13.55
2023-02-08T05:17:42.367Z,13.98
2023-02-08T05:22:46.917Z,12.43
2023-02-08T05:27:49.638Z,12.70
2023-02-08T05:32:52.428Z,13.52
2023-02-08T05:37:56.510Z,14.55
2023-02-08T05:42:59.272Z,14.52
2023-02-08T05:48:02.091Z,13.73
2023-02-08T05:53:06.196Z,14.23
2023-02-08T05:58:08.917Z,14.90
2023-02-08T06:03:12.023Z,15.40
2023-02-08T06:08:16.308Z,13.63
2023-02-08T06:13:19.130Z,15.52
2023-02-08T06:18:21.896Z,16.10
2023-02-08T06:23:26.372Z,16.73
2023-02-08T06:28:29.145Z,17.83
2023-02-08T06:33:32.025Z,15.02
2023-02-08T06:38:36.233Z,15.25
2023-02-08T06:43:39.553Z,14.35
2023-02-08T06:48:42.334Z,13.75
2023-02-08T06:53:46.476Z,14.43
2023-02-08T06:58:49.239Z,14.85
2023-02-08T07:03:52.208Z,15.50
2023-02-08T07:08:56.835Z,14.88
2023-02-08T07:13:59.690Z,14.25
2023-02-08T07:19:02.387Z,14.57
2023-02-08T07:24:07.298Z,14.43
2023-02-08T07:29:10.179Z,14.80
2023-02-08T07:34:13.420Z,17.02
2023-02-08T07:39:17.905Z,21.90
2023-02-08T07:44:20.636Z,17.52
2023-02-08T07:49:23.352Z,18.25
2023-02-08T08:01:21.351Z,16.33
2023-02-08T08:06:26.105Z,15.45
2023-02-08T08:11:29.963Z,16.52
2023-02-08T08:16:34.129Z,14.88
2023-02-08T08:21:37.227Z,13.80
2023-02-08T08:26:40.032Z,14.10
2023-02-08T08:31:45.978Z,13.27
2023-02-08T08:36:48.786Z,13.18
2023-02-08T08:41:51.655Z,12.90
2023-02-08T08:46:57.967Z,15.77
2023-02-08T08:52:00.704Z,12.18
2023-02-08T08:57:03.891Z,12.82
2023-02-08T09:02:08.004Z,12.43
2023-02-08T09:07:11.963Z,11.95
2023-02-08T09:12:15.850Z,12.75
2023-02-08T09:17:20.096Z,12.48
2023-02-08T09:22:22.979Z,13.27
2023-02-08T09:27:25.896Z,12.32
2023-02-08T09:32:33.964Z,12.48
2023-02-08T09:37:37.018Z,11.57
2023-02-08T09:42:43.140Z,12.30
2023-02-08T09:47:55.597Z,11.87
2023-02-08T09:53:05.498Z,11.15
2023-02-08T09:58:19.178Z,9.38
2023-02-08T10:03:32.556Z,12.25
2023-02-08T10:08:37.162Z,10.48
2023-02-08T10:13:57.856Z,12.52
2023-02-08T10:19:08.915Z,11.40
2023-02-08T10:24:28.301Z,11.48
2023-02-08T10:30:00.826Z,11.35
2023-02-08T10:35:12.275Z,10.93
2023-02-08T10:40:25.940Z,9.70
2023-02-08T10:45:36.292Z,11.60
2023-02-08T10:50:42.661Z,11.82
2023-02-08T10:55:47.733Z,12.30
2023-02-08T11:00:52.072Z,11.98
2023-02-08T11:05:57.141Z,10.18
2023-02-08T11:11:03.669Z,9.55
2023-02-08T11:16:08.741Z,10.23
2023-02-08T11:21:25.833Z,9.07
2023-02-08T11:31:37.055Z,9.43
2023-02-08T11:36:47.806Z,9.30
2023-02-08T11:41:53.661Z,8.90
2023-02-08T11:46:59.852Z,9.05
2023-02-08T11:52:05.555Z,8.40
2023-02-08T11:57:17.448Z,7.90
2023-02-08T12:02:37.341Z,8.32
2023-02-08T12:07:59.222Z,9.82
2023-02-08T12:13:30.338Z,8.70
2023-02-08T12:19:15.844Z,9.93
2023-02-08T12:24:27.946Z,9.88
2023-02-08T12:29:47.718Z,10.05
2023-02-08T12:35:07.810Z,11.02
2023-02-08T12:40:43.054Z,8.65
2023-02-08T12:45:59.888Z,8.65
2023-02-08T12:51:12.650Z,7.88
2023-02-08T12:56:19.937Z,9.68
2023-02-08T13:01:27.168Z,8.82
2023-02-08T13:06:34.382Z,9.87
2023-02-08T13:16:47.039Z,11.23
2023-02-08T13:21:51.061Z,9.55
2023-02-08T13:26:55.378Z,9.27
2023-02-08T13:32:04.907Z,9.77
2023-02-08T13:37:25.456Z,12.35
2023-02-08T13:42:34.814Z,8.32
2023-02-08T13:47:45.962Z,8.15
2023-02-08T13:52:55.760Z,7.53
2023-02-08T13:58:01.338Z,6.03
2023-02-08T14:03:20.649Z,6.28
2023-02-08T14:08:31.690Z,7.38
2023-02-08T14:13:42.112Z,7.18
2023-02-08T14:18:52.948Z,6.57
2023-02-08T14:24:02.885Z,6.97
2023-02-08T14:29:08.179Z,8.05
2023-02-08T14:34:34.782Z,6.57
2023-02-08T14:39:39.159Z,7.65
2023-02-08T14:44:59.787Z,10.98
2023-02-08T14:50:09.768Z,11.73
2023-02-08T14:55:18.743Z,6.85
2023-02-08T15:00:26.869Z,8.18
2023-02-08T15:05:32.291Z,8.05
2023-02-08T15:10:36.295Z,9.38
2023-02-08T15:15:43.581Z,8.20
2023-02-08T15:20:47.644Z,6.88
2023-02-08T15:25:57.295Z,8.10
2023-02-08T15:31:05.062Z,9.68
2023-02-08T15:36:15.234Z,6.80
2023-02-08T15:41:26.919Z,10.25
2023-02-08T15:46:32.237Z,9.50
2023-02-08T15:51:35.201Z,6.53
2023-02-08T15:56:42.442Z,7.82
2023-02-08T16:01:49.057Z,11.20
2023-02-08T16:06:55.065Z,7.82
2023-02-08T16:12:00.480Z,7.13
2023-02-08T16:17:04.643Z,8.23
2023-02-08T16:22:26.570Z,7.68
2023-02-08T16:27:31.615Z,11.38
2023-02-08T16:32:39.443Z,17.63
2023-02-08T16:37:42.892Z,15.60
2023-02-08T16:42:46.158Z,13.00
2023-02-08T16:47:53.198Z,14.07
2023-02-08T16:53:00.102Z,16.92
2023-02-08T16:58:02.998Z,14.77
2023-02-08T17:03:07.097Z,18.98
2023-02-08T17:08:15.781Z,32.33
2023-02-08T17:13:21.133Z,26.23
2023-02-08T17:18:25.544Z,17.70
2023-02-08T17:23:28.420Z,13.13
2023-02-08T17:28:31.568Z,11.00
2023-02-08T17:33:40.016Z,9.88
2023-02-08T17:38:44.704Z,11.02
2023-02-08T17:43:50.891Z,11.00
2023-02-08T17:48:55.459Z,11.67
2023-02-08T17:53:58.206Z,15.48
2023-02-08T17:59:03.652Z,19.00
2023-02-08T18:04:11.086Z,17.73
2023-02-08T18:09:13.795Z,16.55
2023-02-08T18:14:18.274Z,14.23
2023-02-08T18:19:22.900Z,13.23
2023-02-08T18:24:25.602Z,13.23
2023-02-08T18:29:28.437Z,13.43
2023-02-08T18:34:33.408Z,13.85
2023-02-08T18:39:36.405Z,10.63
2023-02-08T18:44:39.306Z,9.00
2023-02-08T18:49:43.605Z,11.60
2023-02-08T18:54:46.310Z,9.80
2023-02-08T18:59:49.227Z,25.40
2023-02-08T19:04:53.374Z,21.88
2023-02-08T19:09:56.201Z,16.77
2023-02-08T19:14:59.311Z,13.23
2023-02-08T19:20:03.603Z,11.48
2023-02-08T19:25:07.052Z,12.27
2023-02-08T19:30:11.511Z,15.13
2023-02-08T19:35:15.648Z,16.00
2023-02-08T19:40:19.304Z,17.52
2023-02-08T19:45:22.059Z,15.63
2023-02-08T19:50:26.173Z,12.80
2023-02-08T19:55:29.029Z,12.73
2023-02-08T20:00:31.787Z,11.38
2023-02-08T20:05:37.916Z,13.48
2023-02-08T20:10:41.608Z,13.23
2023-02-08T20:15:45.112Z,18.50
2023-02-08T20:20:59.972Z,15.88
2023-02-08T20:26:07.730Z,15.77
2023-02-08T20:31:13.016Z,16.60
2023-02-08T20:36:19.930Z,16.90
2023-02-08T20:46:28.041Z,15.65
2023-02-08T20:51:32.776Z,16.13
2023-02-08T20:56:38.106Z,20.80
2023-02-08T21:01:41.206Z,18.58
2023-02-08T21:06:46.331Z,16.13
2023-02-08T21:11:49.689Z,17.20
2023-02-08T21:16:55.996Z,15.45
2023-02-08T21:22:02.681Z,21.15
2023-02-08T21:27:06.701Z,17.08
2023-02-08T21:32:10.617Z,15.60
2023-02-08T21:37:14.791Z,23.58
2023-02-08T21:42:17.562Z,18.95
2023-02-08T21:47:20.332Z,23.48
2023-02-08T21:52:42.101Z,22.92
2023-02-08T21:57:44.854Z,23.15
2023-02-08T22:02:47.650Z,20.50
2023-02-08T22:07:54.222Z,14.52
2023-02-08T22:12:57.705Z,13.07
2023-02-08T22:18:02.890Z,11.38
2023-02-08T22:23:07.492Z,10.13
2023-02-08T22:28:10.356Z,10.57
2023-02-08T22:33:13.271Z,9.50
2023-02-08T22:38:17.446Z,10.93
2023-02-08T22:43:20.234Z,11.82
2023-02-08T22:48:23.183Z,11.05
2023-02-08T22:53:27.609Z,10.88
2023-02-08T22:58:30.554Z,10.93
2023-02-08T23:03:33.311Z,11.95
2023-02-08T23:08:37.848Z,10.75
2023-02-08T23:13:40.624Z,11.70
2023-02-08T23:18:43.529Z,11.52
2023-02-08T23:23:49.359Z,10.85
2023-02-08T23:28:53.590Z,12.18
2023-02-08T23:33:56.346Z,11.82
2023-02-08T23:39:03.364Z,11.50
2023-02-08T23:44:06.370Z,11.55
2023-02-08T23:49:09.120Z,12.48
2023-02-08T23:54:13.337Z,12.13
2023-02-08T23:59:16.106Z,12.38
